Time;durP1;ratioP1;P1;durP2;ratioP2;P2;SDS_P1;SDS_P2;PMS_P1;PMS_P2;Temp;Humidity;BMP_temperature;BMP_pressure;BME280_temperature;BME280_humidity;BME280_pressure;Samples;Min_cycle;Max_cycle;Signal;HPM_P1;HPM_P2
2022/11/12 11:13:21;;;;;;;6.85;5.15;;;7.80;99.90;;;;;;5007432;28;20422;-86
2022/11/12 11:16:09;;;;;;;6.55;5.10;;;8.00;99.90;;;;;;5016794;28;20509;-87
2022/11/12 11:19:03;;;;;;;6.55;5.35;;;8.00;99.90;;;;;;4980344;28;20060;-86
2022/11/12 11:21:48;;;;;;;7.22;5.70;;;8.10;99.90;;;;;;5008585;28;20398;-86
2022/11/12 11:24:41;;;;;;;5.88;5.18;;;8.20;99.90;;;;;;5013254;28;20047;-87
2022/11/12 11:27:45;;;;;;;7.85;5.25;;;8.30;99.90;;;;;;5033589;28;20686;-87
2022/11/12 11:30:57;;;;;;;6.97;5.40;;;8.40;99.90;;;;;;5035160;28;20184;-86
2022/11/12 11:34:02;;;;;;;5.82;5.18;;;8.50;99.90;;;;;;4994271;28;21107;-85
2022/11/12 11:37:15;;;;;;;8.55;6.30;;;8.60;99.90;;;;;;5008699;28;20466;-86
2022/11/12 11:40:20;;;;;;;8.23;6.10;;;8.70;99.90;;;;;;5016899;28;21162;-86
2022/11/12 11:43:31;;;;;;;7.13;5.53;;;8.70;99.90;;;;;;5012788;28;20040;-86
2022/11/12 11:46:34;;;;;;;9.85;5.97;;;8.80;99.90;;;;;;5011951;28;20096;-85
2022/11/12 11:49:40;;;;;;;7.40;5.35;;;8.80;99.90;;;;;;5008116;28;20036;-87
2022/11/12 11:52:40;;;;;;;8.48;6.05;;;8.90;99.90;;;;;;5012120;28;20055;-86
2022/11/12 11:55:33;;;;;;;7.80;6.22;;;8.90;99.90;;;;;;5006692;28;20117;-85
2022/11/12 11:58:30;;;;;;;9.07;6.18;;;9.00;99.90;;;;;;5021977;28;20083;-86
2022/11/12 12:01:35;;;;;;;7.28;5.75;;;9.10;99.90;;;;;;5029156;28;20088;-85
2022/11/12 12:04:25;;;;;;;6.93;5.22;;;9.10;99.90;;;;;;5025231;28;20474;-86
2022/11/12 12:07:31;;;;;;;7.32;5.28;;;9.20;99.90;;;;;;5002730;28;20107;-85
2022/11/12 12:10:29;;;;;;;7.95;6.20;;;9.30;99.90;;;;;;5013321;28;20052;-85
2022/11/12 12:13:34;;;;;;;9.50;5.97;;;9.30;99.90;;;;;;4999191;28;20047;-86
2022/11/12 12:16:18;;;;;;;6.65;5.43;;;9.30;99.90;;;;;;5009711;28;20474;-86
2022/11/12 12:19:31;;;;;;;7.43;6.15;;;9.40;99.90;;;;;;5004842;28;20040;-86
2022/11/12 12:22:26;;;;;;;8.27;5.93;;;9.40;99.90;;;;;;5008176;28;20052;-86
2022/11/12 12:25:15;;;;;;;7.22;5.35;;;9.50;99.90;;;;;;5012957;28;20047;-86
2022/11/12 12:28:24;;;;;;;7.10;4.97;;;9.50;99.90;;;;;;5008458;28;20107;-87
2022/11/12 12:31:15;;;;;;;8.73;5.65;;;9.50;99.90;;;;;;5011683;28;20170;-85
2022/11/12 12:34:17;;;;;;;7.68;5.32;;;9.50;99.90;;;;;;5043750;28;20145;-86
2022/11/12 12:37:19;;;;;;;6.18;4.93;;;9.50;99.90;;;;;;5008423;28;20049;-86
2022/11/12 12:40:30;;;;;;;6.30;5.07;;;9.60;99.90;;;;;;5012466;28;20735;-86
2022/11/12 12:43:52;;;;;;;7.57;5.55;;;9.60;99.90;;;;;;4994744;28;20103;-86
2022/11/12 12:46:52;;;;;;;7.88;5.95;;;9.70;99.90;;;;;;5006402;28;20466;-86
2022/11/12 12:49:38;;;;;;;5.80;5.05;;;9.70;99.90;;;;;;5007900;28;20506;-85
2022/11/12 12:52:22;;;;;;;6.55;5.43;;;9.70;99.90;;;;;;4997614;28;20172;-84
2022/11/12 12:55:33;;;;;;;7.13;5.60;;;9.80;99.90;;;;;;5011486;28;20108;-85
2022/11/12 12:58:32;;;;;;;6.65;5.55;;;9.80;99.90;;;;;;5006748;28;20084;-85
2022/11/12 13:01:20;;;;;;;6.90;5.40;;;9.80;99.90;;;;;;5018558;28;20615;-85
2022/11/12 13:04:09;;;;;;;7.90;5.55;;;9.90;99.90;;;;;;5023840;28;20059;-85
2022/11/12 13:06:54;;;;;;;6.53;5.03;;;9.90;99.90;;;;;;5020472;28;20157;-85
2022/11/12 13:09:38;;;;;;;7.80;5.53;;;9.90;99.90;;;;;;5012872;28;20037;-86
2022/11/12 13:13:03;;;;;;;6.07;4.68;;;10.00;99.90;;;;;;5006663;28;20287;-85
2022/11/12 13:15:53;;;;;;;6.15;5.07;;;10.00;99.90;;;;;;5017970;28;20099;-86
2022/11/12 13:18:37;;;;;;;6.07;5.30;;;10.10;99.90;;;;;;5017836;28;20044;-85
2022/11/12 13:21:22;;;;;;;6.70;4.55;;;10.10;99.90;;;;;;5043895;28;20048;-86
2022/11/12 13:24:11;;;;;;;6.93;4.78;;;10.20;99.90;;;;;;5025544;28;20040;-86
2022/11/12 13:26:58;;;;;;;6.25;4.78;;;10.30;99.90;;;;;;5044950;28;20051;-85
2022/11/12 13:29:44;;;;;;;6.45;5.38;;;10.30;99.90;;;;;;5010084;28;20402;-85
2022/11/12 13:32:28;;;;;;;;;;;10.40;99.90;;;;;;5029443;28;20055;-86
2022/11/12 13:35:21;;;;;;;5.82;5.00;;;10.30;99.90;;;;;;5029406;28;19931;-86
2022/11/12 13:38:11;;;;;;;6.20;5.03;;;10.30;99.90;;;;;;5021739;28;20515;-85
2022/11/12 13:41:15;;;;;;;6.35;4.60;;;10.40;99.90;;;;;;5029165;28;20111;-85
2022/11/12 13:44:05;;;;;;;5.75;4.57;;;10.40;99.90;;;;;;5029664;28;20520;-85
2022/11/12 13:46:51;;;;;;;5.93;4.38;;;10.40;99.90;;;;;;5030415;28;20473;-85
2022/11/12 13:49:36;;;;;;;6.75;4.63;;;10.40;99.90;;;;;;5030535;28;20500;-85
2022/11/12 13:52:21;;;;;;;5.78;4.82;;;10.40;99.90;;;;;;5015549;28;20527;-86
2022/11/12 13:55:13;;;;;;;5.25;4.30;;;10.50;99.90;;;;;;5032885;28;20060;-85
2022/11/12 13:57:58;;;;;;;5.68;4.85;;;10.50;99.90;;;;;;5038194;28;20095;-85
2022/11/12 14:00:51;;;;;;;6.88;4.50;;;10.50;99.90;;;;;;5014388;28;20459;-85
2022/11/12 14:03:46;;;;;;;6.35;4.50;;;10.50;99.90;;;;;;5043378;28;20071;-85
2022/11/12 14:06:33;;;;;;;5.35;4.28;;;10.40;99.90;;;;;;5038268;28;20044;-85
2022/11/12 14:09:33;;;;;;;5.25;4.10;;;10.40;99.90;;;;;;5027806;28;20036;-85
2022/11/12 14:12:50;;;;;;;5.05;4.20;;;10.30;99.90;;;;;;5024615;28;20052;-85
2022/11/12 14:16:02;;;;;;;5.38;4.40;;;10.30;99.90;;;;;;5034026;28;20196;-85
2022/11/12 14:19:16;;;;;;;4.53;4.13;;;10.20;99.90;;;;;;5039704;28;20071;-85
2022/11/12 14:22:20;;;;;;;5.00;4.22;;;10.20;99.90;;;;;;5031688;28;20079;-85
2022/11/12 14:25:19;;;;;;;7.50;4.20;;;10.10;99.90;;;;;;5008915;28;20049;-85
2022/11/12 14:28:04;;;;;;;6.10;4.13;;;10.00;99.90;;;;;;5030447;28;20043;-85
2022/11/12 14:30:48;;;;;;;6.53;3.90;;;10.00;99.90;;;;;;5014082;28;20084;-85
2022/11/12 14:33:33;;;;;;;6.32;4.70;;;9.90;99.90;;;;;;5029187;28;20048;-85
2022/11/12 14:36:18;;;;;;;6.25;4.40;;;9.90;99.90;;;;;;5041334;28;20114;-85
2022/11/12 14:39:02;;;;;;;8.25;4.65;;;9.80;99.90;;;;;;5004852;28;20056;-86
2022/11/12 14:41:48;;;;;;;6.20;4.63;;;9.80;99.90;;;;;;5016226;28;20047;-85
2022/11/12 14:44:37;;;;;;;7.30;5.72;;;9.70;99.90;;;;;;5014597;28;20076;-84
2022/11/12 14:47:23;;;;;;;18.10;9.43;;;9.70;99.90;;;;;;5024705;28;20617;-86
2022/11/12 14:50:24;;;;;;;14.73;8.45;;;9.70;99.90;;;;;;5030676;28;20044;-84
2022/11/12 14:53:20;;;;;;;15.10;9.00;;;9.60;99.90;;;;;;5027956;28;20417;-85
2022/11/12 14:56:08;;;;;;;16.58;9.32;;;9.50;99.90;;;;;;5036410;28;20519;-86
2022/11/12 14:58:54;;;;;;;13.25;8.75;;;9.40;99.90;;;;;;5009457;28;20048;-85
2022/11/12 15:01:38;;;;;;;13.18;7.57;;;9.30;99.90;;;;;;5008319;28;20056;-85
2022/11/12 15:04:26;;;;;;;12.47;8.47;;;9.20;99.90;;;;;;5005850;28;20043;-85
2022/11/12 15:07:46;;;;;;;12.30;8.68;;;9.10;99.90;;;;;;4999295;28;20104;-85
2022/11/12 15:10:36;;;;;;;14.57;9.00;;;9.00;99.90;;;;;;5026238;28;20125;-85
2022/11/12 15:13:23;;;;;;;17.83;12.00;;;8.90;99.90;;;;;;5008113;28;20049;-85
2022/11/12 15:16:09;;;;;;;14.35;9.63;;;8.80;99.90;;;;;;5029121;28;20059;-86
2022/11/12 15:19:18;;;;;;;20.95;12.48;;;8.70;99.90;;;;;;5029345;28;20693;-85
2022/11/12 15:22:03;;;;;;;12.52;8.32;;;8.60;99.90;;;;;;5021470;28;20043;-86
2022/11/12 15:24:48;;;;;;;12.70;8.60;;;8.50;99.90;;;;;;5034463;28;20043;-86
2022/11/12 15:27:40;;;;;;;14.60;8.63;;;8.40;99.90;;;;;;5012738;28;20282;-86
2022/11/12 15:30:27;;;;;;;14.85;9.95;;;8.30;99.90;;;;;;5016371;28;20056;-84
2022/11/12 15:33:12;;;;;;;16.58;11.30;;;8.20;99.90;;;;;;5026424;28;20107;-86
2022/11/12 15:36:01;;;;;;;18.90;13.50;;;8.10;99.90;;;;;;5030374;28;20036;-87
2022/11/12 15:38:51;;;;;;;24.40;18.50;;;8.10;99.90;;;;;;5048981;28;20132;-85
2022/11/12 15:41:35;;;;;;;24.65;16.75;;;8.00;99.90;;;;;;5025218;28;20041;-85
2022/11/12 15:44:22;;;;;;;22.75;16.63;;;7.90;99.90;;;;;;5007835;28;20133;-86
2022/11/12 15:47:14;;;;;;;19.55;13.65;;;7.80;99.90;;;;;;5025801;28;20040;-85
2022/11/12 15:49:58;;;;;;;14.48;10.85;;;7.70;99.90;;;;;;5026949;28;20506;-84
2022/11/12 15:52:43;;;;;;;14.38;9.82;;;7.60;99.90;;;;;;5004433;28;20761;-85
2022/11/12 15:55:28;;;;;;;15.52;10.27;;;7.60;99.90;;;;;;5019921;28;20048;-84
2022/11/12 15:58:41;;;;;;;12.80;8.40;;;7.50;99.90;;;;;;5016583;28;20174;-85
2022/11/12 16:01:27;;;;;;;16.48;8.95;;;7.40;99.90;;;;;;5034928;28;20112;-85
2022/11/12 16:04:12;;;;;;;14.52;9.57;;;7.40;99.90;;;;;;5029373;28;20099;-86
2022/11/12 16:06:56;;;;;;;26.47;11.90;;;7.30;99.90;;;;;;5031530;28;20040;-85
2022/11/12 16:09:41;;;;;;;60.55;18.55;;;7.20;99.90;;;;;;5021795;28;20104;-84
2022/11/12 16:12:26;;;;;;;55.13;17.55;;;7.20;99.90;;;;;;5000549;28;20150;-86
2022/11/12 16:15:19;;;;;;;78.53;23.03;;;7.10;99.90;;;;;;5023697;28;20576;-85
2022/11/12 16:18:03;;;;;;;43.45;15.02;;;7.10;99.90;;;;;;5028639;28;20086;-85
2022/11/12 16:20:48;;;;;;;39.60;14.20;;;7.00;99.90;;;;;;5012536;28;20052;-84
2022/11/12 16:23:33;;;;;;;58.33;18.80;;;7.00;99.90;;;;;;5012407;28;20650;-84
2022/11/12 16:26:24;;;;;;;31.40;12.75;;;6.90;99.90;;;;;;5011506;28;20048;-85
2022/11/12 16:29:12;;;;;;;46.35;19.58;;;6.90;99.90;;;;;;5023721;28;20791;-85
2022/11/12 16:31:56;;;;;;;42.15;14.50;;;6.90;99.90;;;;;;5024518;28;20515;-86
2022/11/12 16:34:40;;;;;;;33.05;11.60;;;6.80;99.90;;;;;;5017243;28;20106;-85
2022/11/12 16:37:25;;;;;;;14.10;6.60;;;6.80;99.90;;;;;;5010722;28;20724;-85
2022/11/12 16:40:16;;;;;;;9.10;5.60;;;6.80;99.90;;;;;;5022516;28;20103;-85
2022/11/12 16:43:00;;;;;;;9.02;4.30;;;6.70;99.90;;;;;;5013466;28;20051;-85
2022/11/12 16:45:45;;;;;;;7.90;4.43;;;6.70;99.90;;;;;;5008086;28;20040;-85
2022/11/12 16:48:31;;;;;;;10.32;5.70;;;6.70;99.90;;;;;;5021535;28;20036;-85
2022/11/12 16:51:18;;;;;;;8.88;6.07;;;6.60;99.90;;;;;;5034085;28;20044;-85
2022/11/12 16:54:03;;;;;;;8.95;5.22;;;6.60;99.90;;;;;;5029514;28;20456;-85
2022/11/12 16:56:47;;;;;;;9.50;5.63;;;6.50;99.90;;;;;;5015911;28;20099;-85
2022/11/12 16:59:32;;;;;;;6.88;4.80;;;6.50;99.90;;;;;;5006234;28;20146;-85
2022/11/12 17:02:16;;;;;;;11.90;6.93;;;6.40;99.90;;;;;;5012492;28;20113;-85
2022/11/12 17:05:06;;;;;;;13.02;8.10;;;6.40;99.90;;;;;;4996573;28;20068;-86
2022/11/12 17:07:55;;;;;;;8.77;6.03;;;6.30;99.90;;;;;;5025288;28;20134;-86
2022/11/12 17:10:39;;;;;;;8.13;5.00;;;6.30;99.90;;;;;;5044258;28;20103;-85
2022/11/12 17:13:24;;;;;;;8.43;5.15;;;6.20;99.90;;;;;;5003169;28;20126;-85
2022/11/12 17:16:09;;;;;;;6.20;3.95;;;6.20;99.90;;;;;;5010060;28;20052;-85
2022/11/12 17:18:55;;;;;;;7.10;4.53;;;6.10;99.90;;;;;;4997942;28;20056;-85
2022/11/12 17:21:39;;;;;;;8.55;5.13;;;6.10;99.90;;;;;;5016370;28;20043;-85
2022/11/12 17:24:25;;;;;;;9.82;6.45;;;6.10;99.90;;;;;;5031536;28;20116;-85
2022/11/12 17:27:09;;;;;;;9.00;5.50;;;6.10;99.90;;;;;;5013814;28;20135;-84
2022/11/12 17:29:54;;;;;;;9.07;6.07;;;6.10;99.90;;;;;;5002138;28;20091;-84
2022/11/12 17:32:38;;;;;;;13.60;5.80;;;6.10;99.90;;;;;;5020645;28;20048;-85
2022/11/12 17:35:23;;;;;;;9.02;5.80;;;6.00;99.90;;;;;;5012692;28;20143;-84
2022/11/12 17:38:07;;;;;;;16.42;10.32;;;6.00;99.90;;;;;;5011132;28;20137;-84
2022/11/12 17:40:56;;;;;;;55.45;16.92;;;6.00;99.90;;;;;;5005066;28;20043;-84
2022/11/12 17:43:41;;;;;;;100.00;21.17;;;6.00;99.90;;;;;;5016038;28;20095;-84
2022/11/12 17:46:26;;;;;;;41.13;17.98;;;5.90;99.90;;;;;;5006222;28;20117;-86
2022/11/12 17:49:11;;;;;;;92.65;36.00;;;5.90;99.90;;;;;;5010656;28;20056;-85
2022/11/12 17:51:55;;;;;;;59.55;24.80;;;5.90;99.90;;;;;;5009216;28;20099;-85
2022/11/12 17:54:39;;;;;;;94.32;39.38;;;5.80;99.90;;;;;;4993839;28;20417;-86
2022/11/12 17:57:24;;;;;;;111.38;42.85;;;5.80;99.90;;;;;;5022486;28;20075;-85
2022/11/12 18:00:09;;;;;;;67.75;28.83;;;5.80;99.90;;;;;;5000982;28;20127;-85
2022/11/12 18:02:57;;;;;;;86.50;33.60;;;5.80;99.90;;;;;;5027680;28;20104;-85
2022/11/12 18:05:42;;;;;;;81.80;34.47;;;5.80;99.90;;;;;;5014862;28;20044;-85
2022/11/12 18:08:26;;;;;;;70.15;29.60;;;5.70;99.90;;;;;;5009937;28;20093;-85
2022/11/12 18:11:13;;;;;;;54.00;23.30;;;5.60;99.90;;;;;;5017897;28;20056;-85
2022/11/12 18:13:57;;;;;;;35.50;16.17;;;5.60;99.90;;;;;;5029521;28;20087;-85
2022/11/12 18:16:41;;;;;;;24.90;11.88;;;5.60;99.90;;;;;;5015854;28;20106;-86
2022/11/12 18:19:26;;;;;;;9.85;8.23;;;5.60;99.90;;;;;;5013279;28;20055;-85
2022/11/12 18:22:13;;;;;;;11.73;9.27;;;5.50;99.90;;;;;;5009443;28;20162;-85
2022/11/12 18:24:57;;;;;;;22.33;11.65;;;5.50;99.90;;;;;;5022365;28;20044;-85
2022/11/12 18:27:43;;;;;;;27.52;13.82;;;5.50;99.90;;;;;;5019067;28;20115;-84
2022/11/12 18:30:27;;;;;;;23.20;12.43;;;5.50;99.90;;;;;;5004432;28;20047;-85
2022/11/12 18:33:12;;;;;;;25.15;13.77;;;5.50;99.90;;;;;;5033458;28;20051;-86
2022/11/12 18:36:11;;;;;;;26.92;14.63;;;5.40;99.90;;;;;;5032737;28;20039;-85
2022/11/12 18:38:56;;;;;;;30.77;16.83;;;5.40;99.90;;;;;;5019377;28;20076;-85
2022/11/12 18:41:40;;;;;;;46.33;20.10;;;5.40;99.90;;;;;;5032286;28;20052;-85
2022/11/12 18:44:25;;;;;;;40.97;21.25;;;5.30;99.90;;;;;;5032529;28;20087;-85
2022/11/12 18:47:10;;;;;;;47.95;22.05;;;5.30;99.90;;;;;;5012596;28;20040;-85
2022/11/12 18:49:54;;;;;;;48.28;24.25;;;5.20;99.90;;;;;;5013048;28;20099;-86
2022/11/12 18:52:39;;;;;;;58.30;27.17;;;5.20;99.90;;;;;;5032984;28;20076;-85
2022/11/12 18:55:23;;;;;;;95.95;36.58;;;5.20;99.90;;;;;;4999425;28;20047;-86
2022/11/12 18:58:07;;;;;;;92.35;40.20;;;5.20;99.90;;;;;;5005190;28;20048;-85
2022/11/12 19:00:52;;;;;;;78.47;33.53;;;5.20;99.90;;;;;;5029969;28;20503;-85
2022/11/12 19:03:36;;;;;;;82.97;35.95;;;5.20;99.90;;;;;;5017811;28;20180;-85
2022/11/12 19:06:21;;;;;;;65.28;31.42;;;5.10;99.90;;;;;;5032281;28;20040;-85
2022/11/12 19:09:08;;;;;;;56.77;29.63;;;5.10;99.90;;;;;;5005511;28;20079;-85
2022/11/12 19:11:53;;;;;;;58.03;28.23;;;5.10;99.90;;;;;;5022092;28;20047;-85
2022/11/12 19:14:38;;;;;;;50.35;26.33;;;5.10;99.90;;;;;;5011885;28;20107;-85
2022/11/12 19:17:22;;;;;;;45.63;25.88;;;5.00;99.90;;;;;;5029264;28;20071;-85
2022/11/12 19:20:07;;;;;;;51.35;25.15;;;5.00;99.90;;;;;;4988880;28;20060;-85
2022/11/12 19:22:53;;;;;;;40.30;22.83;;;5.00;99.90;;;;;;5012960;28;20048;-86
2022/11/12 19:25:37;;;;;;;37.47;23.30;;;5.00;99.90;;;;;;5015874;28;20086;-85
2022/11/12 19:28:21;;;;;;;38.15;22.13;;;4.90;99.90;;;;;;5011187;28;20120;-85
2022/11/12 19:31:09;;;;;;;40.42;22.35;;;4.90;99.90;;;;;;5012606;28;20052;-85
2022/11/12 19:33:54;;;;;;;35.53;20.30;;;4.90;99.90;;;;;;5022199;28;20045;-85
2022/11/12 19:36:39;;;;;;;29.40;18.13;;;4.80;99.90;;;;;;5025524;28;20037;-85
2022/11/12 19:39:24;;;;;;;30.98;17.70;;;4.80;99.90;;;;;;5026471;28;20048;-85
2022/11/12 19:42:08;;;;;;;30.27;17.88;;;4.90;99.90;;;;;;5020229;28;20457;-85
2022/11/12 19:44:52;;;;;;;32.17;17.80;;;4.90;99.90;;;;;;5012400;28;20681;-85
2022/11/12 19:47:37;;;;;;;27.08;17.27;;;4.80;99.90;;;;;;5011699;28;20410;-84
2022/11/12 19:50:21;;;;;;;31.27;18.00;;;4.80;99.90;;;;;;4983980;28;20100;-85
2022/11/12 19:53:06;;;;;;;30.35;18.63;;;4.80;99.90;;;;;;4989822;28;20088;-86
2022/11/12 19:55:50;;;;;;;26.98;16.77;;;4.70;99.90;;;;;;5031527;28;20044;-86
2022/11/12 19:58:35;;;;;;;27.83;16.52;;;4.70;99.90;;;;;;5047302;28;20044;-85
2022/11/12 20:01:19;;;;;;;28.63;16.10;;;4.70;99.90;;;;;;5022397;28;20048;-85
2022/11/12 20:04:03;;;;;;;31.83;17.42;;;4.70;99.90;;;;;;4995781;28;20149;-85
2022/11/12 20:06:48;;;;;;;31.23;17.25;;;4.70;99.90;;;;;;5013192;28;20117;-84
2022/11/12 20:09:33;;;;;;;29.10;16.55;;;4.70;99.90;;;;;;5018296;28;20052;-85
2022/11/12 20:12:17;;;;;;;22.20;13.77;;;4.70;99.90;;;;;;5000158;28;20108;-85
2022/11/12 20:15:01;;;;;;;22.10;14.48;;;4.70;99.90;;;;;;5016962;28;20055;-85
2022/11/12 20:17:46;;;;;;;31.38;16.02;;;4.70;99.90;;;;;;5016046;28;20438;-85
2022/11/12 20:20:30;;;;;;;25.13;14.77;;;4.70;99.90;;;;;;5027994;28;20096;-85
2022/11/12 20:23:15;;;;;;;22.95;14.23;;;4.70;99.90;;;;;;5017982;28;20128;-85
2022/11/12 20:26:14;;;;;;;22.90;13.55;;;4.70;99.90;;;;;;5010088;28;20128;-85
2022/11/12 20:28:58;;;;;;;18.70;12.15;;;4.60;99.90;;;;;;5012246;28;20743;-85
2022/11/12 20:31:43;;;;;;;17.00;11.52;;;4.60;99.90;;;;;;5004570;28;20056;-85
2022/11/12 20:34:28;;;;;;;16.88;11.30;;;4.70;99.90;;;;;;5011317;28;20195;-85
2022/11/12 20:37:12;;;;;;;20.95;11.98;;;4.60;99.90;;;;;;5038029;28;20048;-85
2022/11/12 20:39:57;;;;;;;18.90;12.43;;;4.60;99.90;;;;;;5010888;28;20071;-86
2022/11/12 20:42:42;;;;;;;17.70;12.32;;;4.60;99.90;;;;;;5013319;28;20060;-85
2022/11/12 20:45:27;;;;;;;66.10;22.67;;;4.50;99.90;;;;;;5015904;28;20044;-85
2022/11/12 20:48:11;;;;;;;77.22;23.20;;;4.50;99.90;;;;;;5003262;28;20095;-86
2022/11/12 20:51:15;;;;;;;61.95;20.00;;;4.50;99.90;;;;;;5010391;28;20049;-85
2022/11/12 20:54:00;;;;;;;51.38;19.42;;;4.50;99.90;;;;;;5010477;28;20099;-86
2022/11/12 20:56:44;;;;;;;30.38;15.73;;;4.50;99.90;;;;;;5023769;28;20162;-86
2022/11/12 20:59:28;;;;;;;26.27;15.45;;;4.60;99.90;;;;;;5026806;28;20099;-86
2022/11/12 21:02:13;;;;;;;26.27;16.58;;;4.50;99.90;;;;;;5027385;28;20387;-86
2022/11/12 21:04:57;;;;;;;36.08;21.65;;;4.50;99.90;;;;;;5030129;28;20592;-86
2022/11/12 21:07:41;;;;;;;32.67;18.95;;;4.50;99.90;;;;;;5011048;28;20136;-86
2022/11/12 21:10:25;;;;;;;26.30;15.70;;;4.40;99.90;;;;;;5015598;28;20346;-86
2022/11/12 21:13:10;;;;;;;27.17;14.35;;;4.40;99.90;;;;;;5016560;28;20129;-86
2022/11/12 21:15:55;;;;;;;19.75;12.98;;;4.30;99.90;;;;;;5029990;28;20509;-86
2022/11/12 21:18:40;;;;;;;23.92;15.38;;;4.30;99.90;;;;;;5030635;28;20764;-86
2022/11/12 21:21:24;;;;;;;22.45;15.25;;;4.20;99.90;;;;;;5015463;28;20056;-86
2022/11/12 21:24:09;;;;;;;22.60;13.32;;;4.20;99.90;;;;;;5016875;28;20586;-86
2022/11/12 21:26:53;;;;;;;16.95;12.20;;;4.20;99.90;;;;;;5002775;28;20629;-86
2022/11/12 21:29:40;;;;;;;21.17;13.23;;;4.10;99.90;;;;;;5002882;28;20200;-86
2022/11/12 21:32:25;;;;;;;19.35;13.38;;;4.10;99.90;;;;;;5033432;28;20091;-86
2022/11/12 21:35:09;;;;;;;19.92;12.40;;;4.00;99.90;;;;;;5010318;28;20047;-86
2022/11/12 21:37:54;;;;;;;18.98;12.10;;;4.00;99.90;;;;;;5027404;28;20408;-86
2022/11/12 21:40:38;;;;;;;20.77;12.48;;;3.90;99.90;;;;;;5013889;28;20071;-86
2022/11/12 21:43:23;;;;;;;13.60;10.05;;;3.90;99.90;;;;;;5029220;28;20124;-86
2022/11/12 21:46:09;;;;;;;15.32;11.00;;;3.80;99.90;;;;;;5007246;28;20044;-86
2022/11/12 21:48:55;;;;;;;15.80;11.02;;;3.80;99.90;;;;;;5015500;28;20188;-86
2022/11/12 21:51:39;;;;;;;14.45;9.98;;;3.80;99.90;;;;;;5020065;28;20566;-85
2022/11/12 21:54:23;;;;;;;16.08;11.18;;;3.70;99.90;;;;;;5018483;28;20504;-86
2022/11/12 21:57:08;;;;;;;12.13;9.60;;;3.70;99.90;;;;;;4994948;28;20048;-86
2022/11/12 21:59:52;;;;;;;12.52;9.00;;;3.70;99.90;;;;;;5020751;28;20111;-86
2022/11/12 22:02:36;;;;;;;12.23;8.80;;;3.60;99.90;;;;;;5014823;28;20088;-86
2022/11/12 22:05:21;;;;;;;15.20;10.00;;;3.60;99.90;;;;;;5015913;28;20044;-86
2022/11/12 22:08:05;;;;;;;10.50;8.50;;;3.50;99.90;;;;;;5003980;28;20119;-86
2022/11/12 22:10:50;;;;;;;13.98;10.07;;;3.50;99.90;;;;;;5033488;28;20044;-86
2022/11/12 22:13:35;;;;;;;11.00;8.38;;;3.50;99.90;;;;;;5006076;28;20106;-86
2022/11/12 22:16:22;;;;;;;10.30;8.65;;;3.50;99.90;;;;;;5030749;28;20048;-86
2022/11/12 22:19:06;;;;;;;10.93;7.95;;;3.40;99.90;;;;;;5030387;28;20048;-86
2022/11/12 22:21:50;;;;;;;10.65;8.25;;;3.40;99.90;;;;;;5017323;28;20421;-86
2022/11/12 22:24:35;;;;;;;11.50;8.15;;;3.30;99.90;;;;;;5016045;28;20115;-86
2022/11/12 22:27:19;;;;;;;13.23;9.18;;;3.30;99.90;;;;;;5033982;28;20032;-86
2022/11/12 22:30:03;;;;;;;9.57;7.45;;;3.30;99.90;;;;;;5028094;28;20099;-87
2022/11/12 22:32:48;;;;;;;9.63;7.53;;;3.30;99.90;;;;;;5018894;28;20036;-86
2022/11/12 22:35:34;;;;;;;11.35;8.40;;;3.30;99.90;;;;;;5019194;28;20094;-87
2022/11/12 22:38:18;;;;;;;12.75;8.63;;;3.30;99.90;;;;;;5020445;28;20070;-86
2022/11/12 22:41:14;;;;;;;12.68;8.73;;;3.30;99.90;;;;;;5012152;28;20579;-85
2022/11/12 22:44:00;;;;;;;;;;;3.30;99.90;;;;;;5028833;28;20131;-86
2022/11/12 22:46:44;;;;;;;10.07;7.90;;;3.30;99.90;;;;;;5029222;28;20417;-86
2022/11/12 22:49:29;;;;;;;12.18;7.85;;;3.30;99.90;;;;;;5027959;28;20056;-85
2022/11/12 22:52:13;;;;;;;10.73;7.50;;;3.20;99.90;;;;;;5002031;28;20100;-86
2022/11/12 22:54:58;;;;;;;13.15;8.52;;;3.20;99.90;;;;;;5012661;28;20052;-86
2022/11/12 22:57:42;;;;;;;10.70;8.07;;;3.20;99.90;;;;;;5019156;28;20184;-86
2022/11/12 23:00:29;;;;;;;32.20;13.65;;;3.10;99.90;;;;;;5032807;28;20059;-86
2022/11/12 23:03:14;;;;;;;36.58;15.90;;;3.10;99.90;;;;;;5013402;28;20040;-86
2022/11/12 23:05:59;;;;;;;40.53;16.65;;;3.10;99.90;;;;;;5012428;28;20044;-86
2022/11/12 23:08:45;;;;;;;71.05;23.45;;;3.10;99.90;;;;;;5011352;28;20521;-86
2022/11/12 23:11:30;;;;;;;64.20;23.15;;;3.00;99.90;;;;;;5002839;28;20068;-85
2022/11/12 23:14:15;;;;;;;56.15;20.13;;;3.10;99.90;;;;;;5034843;28;20048;-86
2022/11/12 23:17:02;;;;;;;47.72;19.83;;;3.00;99.90;;;;;;5014695;28;20135;-86
2022/11/12 23:19:46;;;;;;;58.38;19.67;;;3.00;99.90;;;;;;5017487;28;20048;-86
2022/11/12 23:22:31;;;;;;;42.03;18.13;;;3.00;99.90;;;;;;5001424;28;20690;-87
2022/11/12 23:25:15;;;;;;;36.85;15.77;;;3.00;99.90;;;;;;5008055;28;20048;-86
2022/11/12 23:28:00;;;;;;;29.10;14.30;;;3.00;99.90;;;;;;4991234;28;20095;-85
2022/11/12 23:30:51;;;;;;;22.55;12.02;;;3.00;99.90;;;;;;5012732;28;20044;-86
2022/11/12 23:33:36;;;;;;;21.90;11.75;;;2.90;99.90;;;;;;5014766;28;20068;-85
2022/11/12 23:36:21;;;;;;;28.20;14.18;;;2.90;99.90;;;;;;5008455;28;20702;-85
2022/11/12 23:39:05;;;;;;;;;;;2.90;99.90;;;;;;5028255;28;20409;-85
2022/11/12 23:41:50;;;;;;;31.25;14.32;;;2.90;99.90;;;;;;5016451;28;19924;-86
2022/11/12 23:44:34;;;;;;;28.27;14.13;;;2.90;99.90;;;;;;5022507;28;20088;-85
2022/11/12 23:47:18;;;;;;;21.95;12.15;;;2.80;99.90;;;;;;5015218;28;20052;-86
2022/11/12 23:50:03;;;;;;;19.02;10.98;;;2.80;99.90;;;;;;5014154;28;20072;-87
2022/11/12 23:52:48;;;;;;;19.15;10.23;;;2.80;99.90;;;;;;5012466;28;20111;-85
2022/11/12 23:55:32;;;;;;;15.80;9.23;;;2.80;99.90;;;;;;5021484;28;20107;-86
2022/11/12 23:58:16;;;;;;;14.27;9.30;;;2.70;99.90;;;;;;5030922;28;20103;-86
